Nisbet, Pennsylvania
Current Conditions -  °F | °C
As of 4:54 PM on Thursday 20 Nov 2014 (Local Time) from KIPT Reporting Station
Few Clouds Few Clouds  
Wind Chill: 21°   Ceiling: Unl
Heat Index: 30°   Visibility: 10mi
Dew Point:   Wind: 12mph
Humidity: 41%   Direction: 240°WSW
Pressure: 29.95"   Gusts: NA
Location:  41.22°N, 77.11°W
Report Text: KIPT 202154Z 24010KT 10SM FEW055 M01/M13 A2995 RMK AO2 SLP146 T10111128
Loading
Personal Weather Stations






























Interactive Weather Map New forecast layout! Learn more

10-Day Weather Forecast

Advertisements
Track Severe Weather on mobile